Time;durP1;ratioP1;P1;durP2;ratioP2;P2;SDS_P1;SDS_P2;PMS_P1;PMS_P2;Temp;Humidity;BMP_temperature;BMP_pressure;BME280_temperature;BME280_humidity;BME280_pressure;Samples;Min_cycle;Max_cycle;Signal;HPM_P1;HPM_P2
2024/02/18 00:01:42;;;;;;;55.73;27.80;;;;;;;3.49;91.45;101621.03;123036;1102;104268;-83
2024/02/18 00:04:13;;;;;;;56.00;29.37;;;;;;;3.50;91.09;101614.14;123087;1102;104261;-82
2024/02/18 00:06:45;;;;;;;57.33;27.73;;;;;;;3.48;91.24;101616.62;123072;1102;104313;-83
2024/02/18 00:09:18;;;;;;;59.23;28.57;;;;;;;3.49;91.84;101613.25;123675;1102;104245;-82
2024/02/18 00:11:49;;;;;;;56.53;27.93;;;;;;;3.50;90.62;101615.05;123677;1100;104435;-81
2024/02/18 00:14:21;;;;;;;56.03;29.23;;;;;;;3.52;90.96;101605.72;123525;1102;104176;-82
2024/02/18 00:16:52;;;;;;;57.23;27.43;;;;;;;3.54;90.73;101613.63;123489;1102;104283;-81
2024/02/18 00:19:23;;;;;;;57.43;29.27;;;;;;;3.53;90.97;101606.61;123504;1101;104177;-81
2024/02/18 00:21:56;;;;;;;60.05;30.25;;;;;;;3.54;91.63;101604.14;123472;1102;104354;-81
2024/02/18 00:24:27;;;;;;;59.20;29.10;;;;;;;3.56;91.14;101599.97;123403;1102;104354;-79
2024/02/18 00:26:58;;;;;;;54.60;28.80;;;;;;;3.59;91.19;101599.33;123561;1102;104653;-80
2024/02/18 00:29:30;;;;;;;54.20;27.80;;;;;;;3.55;91.03;101598.18;123410;1102;104306;-79
2024/02/18 00:32:01;;;;;;;54.93;28.30;;;;;;;3.53;91.26;101596.23;123272;1102;104274;-79
2024/02/18 00:34:32;;;;;;;56.23;28.53;;;;;;;3.44;90.76;101604.16;123433;1102;104333;-80
2024/02/18 00:37:04;;;;;;;60.50;28.13;;;;;;;3.39;90.62;101595.10;123317;1102;104258;-83
2024/02/18 00:39:35;;;;;;;53.53;28.37;;;;;;;3.38;91.21;101603.66;123571;1102;104201;-80
2024/02/18 00:42:08;;;;;;;55.47;27.53;;;;;;;3.40;90.91;101602.12;123465;1102;104181;-79
2024/02/18 00:44:39;;;;;;;58.83;29.17;;;;;;;3.42;91.20;101604.03;123457;1102;104284;-79
2024/02/18 00:47:10;;;;;;;62.50;29.90;;;;;;;3.46;91.34;101602.63;123406;1102;104299;-80
2024/02/18 00:49:42;;;;;;;53.70;26.87;;;;;;;3.47;91.43;101603.52;123385;1102;104312;-80
2024/02/18 00:52:13;;;;;;;54.10;27.80;;;;;;;3.50;91.50;101598.58;123473;1102;104363;-80
2024/02/18 00:54:44;;;;;;;58.90;29.53;;;;;;;3.53;91.84;101598.83;123462;1102;104224;-80
2024/02/18 00:57:15;;;;;;;54.80;29.20;;;;;;;3.54;91.27;101598.05;123256;1102;104335;-80
2024/02/18 00:59:46;;;;;;;59.33;29.00;;;;;;;3.56;91.82;101596.48;123401;1102;104365;-80
2024/02/18 01:02:17;;;;;;;52.03;26.73;;;;;;;3.58;91.49;101598.43;123565;1102;104255;-80
2024/02/18 01:04:48;;;;;;;54.13;26.97;;;;;;;3.58;91.72;101594.91;123282;1102;104312;-80
2024/02/18 01:07:19;;;;;;;52.37;26.07;;;;;;;3.58;90.74;101594.91;123418;1102;104232;-80
2024/02/18 01:09:51;;;;;;;55.60;27.03;;;;;;;3.57;91.63;101591.42;123484;1102;104428;-80
2024/02/18 01:12:22;;;;;;;52.07;26.30;;;;;;;3.55;91.29;101595.59;123425;1102;104248;-79
2024/02/18 01:14:53;;;;;;;49.80;25.33;;;;;;;3.54;91.77;101591.17;123407;1102;104377;-80
2024/02/18 01:17:24;;;;;;;53.93;27.30;;;;;;;3.47;90.97;101588.84;123298;1102;104248;-79
2024/02/18 01:19:57;;;;;;;51.60;25.93;;;;;;;3.43;90.98;101589.39;123483;1102;104405;-80
2024/02/18 01:22:28;;;;;;;55.93;26.00;;;;;;;3.45;91.15;101590.42;123476;1102;104233;-81
2024/02/18 01:24:59;;;;;;;51.67;25.27;;;;;;;3.47;91.31;101590.55;123524;1102;104393;-81
2024/02/18 01:27:31;;;;;;;50.63;24.73;;;;;;;3.47;91.61;101594.03;123528;1102;104370;-80
2024/02/18 01:30:02;;;;;;;50.17;24.33;;;;;;;3.51;92.17;101595.21;123311;1102;104322;-80
2024/02/18 01:32:34;;;;;;;50.40;23.53;;;;;;;3.45;91.19;101595.61;123228;1102;104281;-80
2024/02/18 01:35:07;;;;;;;47.97;22.43;;;;;;;3.33;91.12;101594.59;123376;1102;104342;-81
2024/02/18 01:37:38;;;;;;;45.50;22.87;;;;;;;3.28;91.55;101589.03;123430;1102;104469;-81
2024/02/18 01:40:11;;;;;;;48.50;22.70;;;;;;;3.30;91.30;101587.45;123413;1102;104171;-82
2024/02/18 01:42:43;;;;;;;47.93;23.10;;;;;;;3.34;91.68;101592.13;123430;1102;104329;-81
2024/02/18 01:45:14;;;;;;;48.63;21.60;;;;;;;3.38;90.99;101590.69;123374;1102;104254;-81
2024/02/18 01:47:45;;;;;;;43.43;20.93;;;;;;;3.31;90.75;101584.09;123240;1102;104360;-80
2024/02/18 01:50:17;;;;;;;45.07;21.07;;;;;;;3.23;91.31;101583.46;123379;1102;117845;-80
2024/02/18 01:52:52;;;;;;;44.17;20.73;;;;;;;3.17;91.35;101577.77;123458;1102;104379;-81
2024/02/18 01:55:25;;;;;;;42.60;19.13;;;;;;;3.19;91.35;101575.30;123398;1102;104296;-81
2024/02/18 01:57:56;;;;;;;43.30;20.70;;;;;;;3.22;91.27;101570.36;123504;1102;104344;-81
2024/02/18 02:00:28;;;;;;;37.67;18.50;;;;;;;3.24;91.02;101573.98;123486;1102;104377;-81
2024/02/18 02:03:00;;;;;;;45.47;20.03;;;;;;;3.29;91.69;101574.36;123484;1102;104286;-81
2024/02/18 02:05:34;;;;;;;40.20;20.03;;;;;;;3.32;91.76;101577.20;123495;1102;104225;-81
2024/02/18 02:08:06;;;;;;;37.45;18.80;;;;;;;3.36;91.35;101579.28;123403;1102;104783;-79
2024/02/18 02:10:39;;;;;;;44.77;19.90;;;;;;;3.38;91.59;101585.49;123360;1102;104236;-80
2024/02/18 02:13:10;;;;;;;43.03;19.43;;;;;;;3.28;91.36;101585.54;123296;1102;104259;-80
2024/02/18 02:15:41;;;;;;;39.60;19.03;;;;;;;3.16;90.95;101580.23;123275;1102;104652;-79
2024/02/18 02:18:15;;;;;;;41.30;18.50;;;;;;;3.07;90.72;101583.00;123228;1102;104390;-80
2024/02/18 02:20:46;;;;;;;38.28;17.90;;;;;;;2.99;90.82;101590.13;123325;1102;104323;-79
2024/02/18 02:23:17;;;;;;;37.57;18.40;;;;;;;2.90;91.52;101583.25;123578;1099;104380;-80
2024/02/18 02:25:49;;;;;;;40.37;18.27;;;;;;;2.85;91.36;101594.16;123591;1099;104356;-80
2024/02/18 02:28:25;;;;;;;39.43;17.60;;;;;;;2.81;91.29;101602.45;123272;1099;104370;-79
2024/02/18 02:30:57;;;;;;;37.53;17.27;;;;;;;2.76;91.35;101603.75;123319;1099;104348;-79
2024/02/18 02:33:28;;;;;;;38.13;17.83;;;;;;;2.75;91.87;101598.44;123445;1099;104310;-79
2024/02/18 02:36:00;;;;;;;37.20;16.80;;;;;;;2.72;91.19;101601.66;123451;1099;104354;-80
2024/02/18 02:38:32;;;;;;;41.00;18.93;;;;;;;2.68;91.63;101600.51;123452;1099;104307;-79
2024/02/18 02:41:03;;;;;;;40.63;18.67;;;;;;;2.69;91.77;101591.04;123663;1099;104374;-80
2024/02/18 02:43:35;;;;;;;41.40;19.13;;;;;;;2.74;91.52;101588.84;123662;1099;104255;-81
2024/02/18 02:46:06;;;;;;;43.60;19.67;;;;;;;2.78;92.06;101585.73;123630;1099;104374;-81
2024/02/18 02:48:37;;;;;;;41.77;19.83;;;;;;;2.83;92.31;101574.06;123582;1099;104245;-81
2024/02/18 02:51:09;;;;;;;45.50;20.23;;;;;;;2.90;91.09;101572.87;123408;1099;104300;-79
2024/02/18 02:53:42;;;;;;;40.73;18.67;;;;;;;2.94;92.24;101578.45;123343;1099;104277;-79
2024/02/18 02:56:13;;;;;;;41.20;18.93;;;;;;;2.91;91.84;101583.38;123287;1099;104270;-79
2024/02/18 02:58:44;;;;;;;42.63;19.83;;;;;;;2.89;91.49;101600.50;123327;1102;104354;-79
2024/02/18 03:01:15;;;;;;;48.77;22.10;;;;;;;2.88;91.51;101597.02;123433;1099;104371;-79
2024/02/18 03:03:48;;;;;;;45.03;21.30;;;;;;;2.85;91.07;101606.19;123465;1099;104172;-79
2024/02/18 03:06:19;;;;;;;50.07;21.37;;;;;;;2.86;92.22;101601.14;123538;1099;104304;-80
2024/02/18 03:08:51;;;;;;;47.77;22.53;;;;;;;2.91;92.34;101600.63;123364;1102;104302;-80
2024/02/18 03:11:22;;;;;;;53.30;23.90;;;;;;;2.93;91.95;101599.06;123324;1099;104223;-80
2024/02/18 03:13:53;;;;;;;47.33;22.30;;;;;;;2.96;91.89;101588.95;123450;1099;104364;-80
2024/02/18 03:16:24;;;;;;;52.97;23.00;;;;;;;3.03;92.35;101589.59;123534;1099;104365;-80
2024/02/18 03:18:55;;;;;;;52.80;23.27;;;;;;;3.10;91.94;101579.73;123465;1099;104376;-80
2024/02/18 03:21:27;;;;;;;49.57;22.63;;;;;;;3.16;92.24;101581.12;123615;1099;104306;-80
2024/02/18 03:24:00;;;;;;;49.53;22.80;;;;;;;3.20;91.91;101580.62;123486;1099;104354;-80
2024/02/18 03:26:32;;;;;;;53.90;24.35;;;;;;;3.24;92.17;101580.10;123475;1099;104351;-81
2024/02/18 03:29:04;;;;;;;50.70;23.30;;;;;;;3.28;92.49;101573.47;123535;1099;104258;-80
2024/02/18 03:31:36;;;;;;;54.50;24.13;;;;;;;3.32;92.98;101572.02;123666;1099;104344;-80
2024/02/18 03:34:07;;;;;;;50.40;22.50;;;;;;;3.35;92.32;101568.01;123575;1099;104261;-80
2024/02/18 03:36:38;;;;;;;50.43;23.67;;;;;;;3.39;92.20;101576.94;123619;1099;104271;-80
2024/02/18 03:39:10;;;;;;;48.67;23.57;;;;;;;3.42;92.62;101579.78;123463;1102;104178;-80
2024/02/18 03:41:41;;;;;;;52.77;23.97;;;;;;;3.43;92.14;101576.42;123517;1099;104229;-80
2024/02/18 03:44:13;;;;;;;47.83;22.63;;;;;;;3.46;92.63;101573.14;123665;1099;104286;-80
2024/02/18 03:46:45;;;;;;;51.63;23.87;;;;;;;3.48;91.72;101577.69;123445;1099;104348;-83
2024/02/18 03:49:17;;;;;;;53.33;23.73;;;;;;;3.49;92.30;101586.37;123497;1098;104319;-80
2024/02/18 03:51:48;;;;;;;50.33;23.33;;;;;;;3.50;91.88;101577.81;123477;1099;104242;-81
2024/02/18 03:54:19;;;;;;;52.97;22.50;;;;;;;3.52;92.02;101582.36;123562;1099;104690;-81
2024/02/18 03:56:51;;;;;;;47.50;21.73;;;;;;;3.53;91.95;101578.96;123575;1099;104326;-81
2024/02/18 03:59:22;;;;;;;47.60;22.37;;;;;;;3.54;92.19;101573.00;123452;1099;104324;-80
2024/02/18 04:01:53;;;;;;;46.73;21.30;;;;;;;3.56;92.90;101574.02;123661;1099;104245;-80
2024/02/18 04:04:25;;;;;;;51.33;23.00;;;;;;;3.57;92.47;101577.55;123723;1099;104361;-80
2024/02/18 04:06:56;;;;;;;47.17;22.33;;;;;;;3.59;92.00;101571.67;123611;1099;104258;-80
2024/02/18 04:09:27;;;;;;;46.70;23.03;;;;;;;3.63;92.42;101569.33;123500;1100;104820;-80
2024/02/18 04:11:58;;;;;;;48.47;22.33;;;;;;;3.64;92.69;101581.53;123655;1099;104280;-80
2024/02/18 04:14:29;;;;;;;49.43;23.80;;;;;;;3.64;92.30;101568.55;123682;1098;104278;-82
2024/02/18 04:17:01;;;;;;;50.67;25.03;;;;;;;3.66;92.97;101569.58;123661;1099;104310;-81
2024/02/18 04:19:33;;;;;;;49.70;23.57;;;;;;;3.68;92.27;101568.92;123638;1099;104278;-80
2024/02/18 05:24:21;;;;;;;54.20;21.77;;;;;;;2.88;93.71;101584.05;123808;1102;104356;-80
2024/02/18 05:26:52;;;;;;;61.27;26.53;;;;;;;2.90;93.73;101583.25;122881;1102;104277;-81
2024/02/18 05:29:23;;;;;;;64.77;26.93;;;;;;;2.94;94.06;101580.14;123038;1102;104303;-81
2024/02/18 05:31:55;;;;;;;64.27;27.40;;;;;;;2.99;94.07;101581.42;122905;1102;104287;-81
2024/02/18 05:34:26;;;;;;;64.43;26.97;;;;;;;3.07;94.21;101580.40;122936;1102;104239;-80
2024/02/18 05:36:57;;;;;;;60.97;26.57;;;;;;;3.15;93.95;101581.03;122825;1102;104248;-80
2024/02/18 05:39:29;;;;;;;65.90;26.27;;;;;;;3.23;94.01;101588.66;123107;1102;104274;-81
2024/02/18 05:42:00;;;;;;;60.87;26.73;;;;;;;3.30;93.96;101583.97;122926;1102;104307;-80
2024/02/18 05:44:31;;;;;;;58.40;25.47;;;;;;;3.37;94.50;101591.48;122971;1105;104335;-81
2024/02/18 05:47:02;;;;;;;63.60;26.33;;;;;;;3.42;93.76;101595.36;122752;1102;104322;-80
2024/02/18 05:49:34;;;;;;;58.13;25.83;;;;;;;3.47;93.53;101593.14;122892;1102;104233;-80
2024/02/18 05:52:05;;;;;;;58.90;26.90;;;;;;;3.51;93.60;101596.11;122985;1102;104278;-81
2024/02/18 05:54:37;;;;;;;58.77;27.50;;;;;;;3.58;94.14;101597.50;122866;1102;104284;-80
2024/02/18 05:57:08;;;;;;;59.13;25.77;;;;;;;3.61;93.83;101595.16;122895;1102;104594;-80
2024/02/18 05:59:39;;;;;;;61.20;25.95;;;;;;;3.65;94.48;101602.42;122881;1106;104379;-80
2024/02/18 06:02:11;;;;;;;60.77;27.27;;;;;;;3.69;94.35;101606.16;123314;1102;104817;-81
2024/02/18 06:04:42;;;;;;;58.65;25.15;;;;;;;3.71;93.73;101607.19;123289;1102;104299;-80
2024/02/18 06:07:13;;;;;;;62.20;27.60;;;;;;;3.67;93.66;101603.44;123318;1102;104287;-79
2024/02/18 06:09:45;;;;;;;64.10;27.13;;;;;;;3.68;94.62;101605.27;123378;1102;104348;-80
2024/02/18 06:12:17;;;;;;;58.90;26.13;;;;;;;3.70;93.97;101613.18;123263;1100;104371;-80
2024/02/18 06:14:48;;;;;;;56.60;25.10;;;;;;;3.68;94.76;101614.75;123259;1100;104702;-79
2024/02/18 06:17:19;;;;;;;56.03;25.37;;;;;;;3.64;94.33;101610.09;123236;1102;104303;-79
2024/02/18 06:19:50;;;;;;;58.77;26.37;;;;;;;3.60;94.56;101602.05;123178;1102;104223;-79
2024/02/18 06:22:22;;;;;;;55.20;26.17;;;;;;;3.62;94.17;101614.25;123150;1102;104201;-79
2024/02/18 06:24:53;;;;;;;54.10;24.60;;;;;;;3.59;94.50;101607.11;123176;1102;104377;-79
2024/02/18 06:27:24;;;;;;;58.40;25.57;;;;;;;3.57;94.60;101604.39;123403;1102;104236;-80
2024/02/18 06:29:55;;;;;;;52.20;23.27;;;;;;;3.60;94.86;101608.94;123170;1102;104329;-78
2024/02/18 06:32:26;;;;;;;53.93;24.60;;;;;;;3.58;94.20;101608.81;123179;1100;104255;-78
2024/02/18 06:34:58;;;;;;;55.87;25.27;;;;;;;3.59;94.72;101607.11;123219;1102;104418;-78
2024/02/18 06:37:31;;;;;;;52.73;24.43;;;;;;;3.58;94.86;101611.41;123232;1102;104281;-78
2024/02/18 06:40:03;;;;;;;55.37;25.00;;;;;;;3.57;94.79;101614.77;123293;1102;104326;-78
2024/02/18 06:42:34;;;;;;;52.83;24.03;;;;;;;3.60;94.88;101607.23;123283;1102;104261;-78
2024/02/18 06:45:07;;;;;;;56.33;24.93;;;;;;;3.67;95.32;101615.52;123204;1102;104287;-78
2024/02/18 06:47:39;;;;;;;52.40;24.23;;;;;;;3.73;95.92;101608.23;123192;1102;104306;-78
2024/02/18 06:50:11;;;;;;;50.43;22.87;;;;;;;3.78;95.94;101617.29;123212;1102;104281;-78
2024/02/18 06:52:43;;;;;;;51.20;23.20;;;;;;;3.83;95.73;101610.77;123197;1102;104271;-79
2024/02/18 06:55:14;;;;;;;50.13;22.43;;;;;;;3.87;95.91;101612.84;123160;1102;104315;-78
2024/02/18 06:57:47;;;;;;;48.50;22.80;;;;;;;3.89;96.04;101613.86;123233;1102;104332;-78
2024/02/18 07:00:18;;;;;;;51.17;24.27;;;;;;;3.88;95.54;101617.27;123151;1102;104301;-78
2024/02/18 07:02:49;;;;;;;51.30;24.23;;;;;;;3.88;95.20;101619.86;123075;1102;104396;-78
2024/02/18 07:05:21;;;;;;;51.77;24.73;;;;;;;3.90;96.18;101620.88;123155;1102;104658;-78
2024/02/18 07:07:53;;;;;;;50.37;24.83;;;;;;;3.96;95.89;101625.67;123220;1102;104303;-79
2024/02/18 07:10:24;;;;;;;52.10;24.83;;;;;;;3.98;95.94;101618.00;123214;1102;104277;-79
2024/02/18 07:12:55;;;;;;;53.67;24.17;;;;;;;3.98;96.25;101618.90;123292;1102;104329;-81
2024/02/18 07:15:27;;;;;;;52.23;23.57;;;;;;;4.00;96.33;101606.03;123158;1101;104746;-78
2024/02/18 07:18:01;;;;;;;53.07;24.17;;;;;;;4.05;95.83;101610.83;123319;1102;104309;-79
2024/02/18 07:20:30;;;;;;;;;;;;;;;4.06;96.19;101611.72;123324;1102;104264;-78
2024/02/18 07:23:01;;;;;;;48.53;22.87;;;;;;;4.07;95.95;101610.95;123231;1102;104300;-79
2024/02/18 07:25:33;;;;;;;55.07;25.13;;;;;;;4.07;96.11;101611.84;123219;1102;104437;-79
2024/02/18 07:28:05;;;;;;;54.40;23.87;;;;;;;4.09;96.76;101617.16;123144;1099;104364;-79
2024/02/18 07:30:37;;;;;;;49.10;24.40;;;;;;;4.11;96.55;101613.91;123282;1099;104293;-79
2024/02/18 07:33:08;;;;;;;52.60;22.40;;;;;;;4.16;97.27;101627.27;123241;1099;104249;-79
2024/02/18 07:35:40;;;;;;;50.50;24.60;;;;;;;4.22;96.58;101617.33;123645;1099;104371;-80
2024/02/18 07:38:11;;;;;;;49.40;22.77;;;;;;;4.25;96.50;101622.77;123242;1099;104421;-80
2024/02/18 07:40:42;;;;;;;51.50;23.25;;;;;;;4.31;96.64;101619.76;123473;1099;104347;-79
2024/02/18 07:43:14;;;;;;;48.70;23.75;;;;;;;4.36;97.42;101625.31;123547;1099;104300;-79
2024/02/18 07:45:47;;;;;;;48.10;22.80;;;;;;;4.41;97.47;101623.98;123500;1099;105700;-79
2024/02/18 07:48:18;;;;;;;43.90;22.23;;;;;;;4.52;97.70;101623.14;123638;1099;104245;-79
2024/02/18 07:50:49;;;;;;;49.70;23.60;;;;;;;4.58;97.62;101622.70;123203;1099;104810;-79
2024/02/18 07:53:20;;;;;;;48.57;21.70;;;;;;;4.65;97.35;101625.89;123462;1099;104346;-79
2024/02/18 07:55:51;;;;;;;48.23;22.00;;;;;;;4.73;97.36;101623.89;123607;1099;104359;-79
2024/02/18 07:58:23;;;;;;;44.37;21.87;;;;;;;4.83;98.02;101633.30;123507;1099;108976;-79
2024/02/18 08:00:56;;;;;;;46.37;22.37;;;;;;;4.88;98.40;101633.64;123474;1099;104248;-78
2024/02/18 08:03:27;;;;;;;47.97;22.43;;;;;;;4.93;98.05;101632.33;123514;1098;104437;-78
2024/02/18 08:05:58;;;;;;;44.33;21.83;;;;;;;4.96;98.26;101629.96;123462;1099;104309;-78
2024/02/18 08:08:29;;;;;;;44.17;22.07;;;;;;;5.02;98.65;101638.23;123482;1098;104322;-80
2024/02/18 08:11:01;;;;;;;42.23;22.33;;;;;;;5.02;98.49;101638.23;123638;1099;104260;-79
2024/02/18 08:13:32;;;;;;;42.33;21.27;;;;;;;5.06;98.66;101634.16;123313;1099;104268;-79
2024/02/18 08:16:03;;;;;;;41.73;21.40;;;;;;;5.11;99.12;101643.21;123522;1099;104285;-79
2024/02/18 08:18:34;;;;;;;45.23;23.00;;;;;;;5.12;98.63;101637.23;123576;1098;104341;-80
2024/02/18 08:21:06;;;;;;;39.17;19.97;;;;;;;5.11;98.93;101644.14;123480;1099;104293;-79
2024/02/18 08:23:37;;;;;;;43.07;21.93;;;;;;;5.13;99.03;101644.25;123538;1099;104258;-79
2024/02/18 08:26:08;;;;;;;40.87;20.50;;;;;;;5.18;99.22;101649.00;123611;1099;104258;-79
2024/02/18 08:28:40;;;;;;;41.40;22.17;;;;;;;5.21;99.79;101651.83;123431;1099;104401;-79
2024/02/18 08:31:13;;;;;;;41.17;20.17;;;;;;;5.25;99.22;101650.39;123556;1098;104306;-79
2024/02/18 08:33:45;;;;;;;44.67;21.43;;;;;;;5.27;99.51;101655.71;123601;1099;104415;-79
2024/02/18 08:36:18;;;;;;;42.37;21.07;;;;;;;5.32;99.45;101654.34;123703;1099;104197;-80
2024/02/18 08:38:50;;;;;;;43.40;22.83;;;;;;;5.34;99.64;101661.46;123263;1099;104277;-78
2024/02/18 08:41:22;;;;;;;42.87;19.67;;;;;;;5.38;99.17;101665.22;123623;1099;104355;-80
2024/02/18 08:43:53;;;;;;;43.97;21.73;;;;;;;5.42;99.32;101664.64;123576;1099;104396;-80
2024/02/18 08:46:24;;;;;;;44.10;22.10;;;;;;;5.47;99.42;101664.98;123503;1099;104281;-80
2024/02/18 08:48:55;;;;;;;44.60;22.53;;;;;;;5.53;99.82;101665.45;123506;1099;104200;-80
2024/02/18 08:51:27;;;;;;;43.90;22.60;;;;;;;5.59;99.91;101665.91;123642;1099;104354;-80
2024/02/18 08:53:58;;;;;;;41.37;21.53;;;;;;;5.65;100.00;101666.36;123611;1098;104255;-80
2024/02/18 08:56:29;;;;;;;44.70;22.57;;;;;;;5.74;99.87;101672.25;123587;1099;104392;-79
2024/02/18 08:59:00;;;;;;;48.60;24.40;;;;;;;5.82;99.94;101669.31;123600;1099;105611;-79
2024/02/18 09:01:32;;;;;;;50.70;25.73;;;;;;;5.89;100.00;101676.77;123597;1099;104306;-81
2024/02/18 09:04:03;;;;;;;50.43;23.97;;;;;;;5.96;100.00;101668.63;123738;1099;104254;-79
2024/02/18 09:06:34;;;;;;;47.73;25.07;;;;;;;6.03;100.00;101675.20;123584;1099;104363;-79
2024/02/18 09:09:06;;;;;;;49.13;24.90;;;;;;;6.07;100.00;101683.36;123712;1099;104358;-82
2024/02/18 09:11:37;;;;;;;48.57;25.40;;;;;;;6.15;100.00;101677.81;123803;1099;104271;-82
2024/02/18 09:14:09;;;;;;;46.87;25.23;;;;;;;6.20;100.00;101671.22;123739;1099;104227;-81
2024/02/18 09:16:40;;;;;;;51.50;26.07;;;;;;;6.24;100.00;101678.48;123701;1099;104389;-79
2024/02/18 09:19:11;;;;;;;48.87;25.47;;;;;;;6.28;100.00;101684.02;123710;1099;104708;-81
2024/02/18 09:21:43;;;;;;;51.27;25.67;;;;;;;6.34;100.00;101674.81;123310;1099;104319;-81
2024/02/18 09:24:14;;;;;;;44.87;23.47;;;;;;;6.38;100.00;101680.36;123314;1099;104345;-80
2024/02/18 09:26:45;;;;;;;46.07;21.83;;;;;;;6.43;100.00;101678.08;123727;1099;104245;-79
2024/02/18 09:29:17;;;;;;;46.87;24.77;;;;;;;6.47;100.00;101677.52;123639;1099;104318;-81
2024/02/18 09:31:48;;;;;;;45.57;23.37;;;;;;;6.48;100.00;101688.05;124159;1099;104367;-81
2024/02/18 09:34:19;;;;;;;50.10;24.70;;;;;;;6.53;100.00;101682.24;123800;1099;104479;-80
2024/02/18 09:36:51;;;;;;;49.00;25.27;;;;;;;6.56;100.00;101682.45;123777;1099;104286;-81
2024/02/18 09:39:22;;;;;;;45.73;23.10;;;;;;;6.59;100.00;101680.06;123624;1099;104629;-79
2024/02/18 09:41:54;;;;;;;45.13;21.77;;;;;;;6.60;100.00;101684.50;123449;1099;104367;-80
2024/02/18 09:44:27;;;;;;;48.23;23.77;;;;;;;6.61;100.00;101682.00;123329;1099;104367;-80
2024/02/18 09:47:01;;;;;;;42.93;22.60;;;;;;;6.64;100.00;101683.92;123579;1099;104422;-80
2024/02/18 09:49:34;;;;;;;40.30;21.80;;;;;;;6.68;100.00;101683.33;123828;1099;104242;-79
2024/02/18 09:52:07;;;;;;;43.27;22.47;;;;;;;6.72;100.00;101669.71;123669;1099;104242;-79
2024/02/18 09:54:39;;;;;;;41.58;21.35;;;;;;;6.80;100.00;101667.64;123832;1098;104270;-80
2024/02/18 09:57:10;;;;;;;40.67;21.20;;;;;;;6.86;100.00;101669.75;123610;1099;104210;-81
2024/02/18 09:59:41;;;;;;;42.77;21.70;;;;;;;6.90;100.00;101666.56;123550;1099;104280;-81
2024/02/18 10:02:15;;;;;;;38.67;20.63;;;;;;;6.95;100.00;101665.16;124001;1098;104341;-81
2024/02/18 10:04:47;;;;;;;38.50;19.33;;;;;;;6.96;100.00;101672.20;123467;1099;104268;-80
2024/02/18 10:07:18;;;;;;;37.43;19.70;;;;;;;6.99;100.00;101678.53;123598;1099;104272;-78
2024/02/18 10:09:50;;;;;;;38.00;19.43;;;;;;;6.99;100.00;101672.42;123792;1099;104158;-82
2024/02/18 10:12:22;;;;;;;38.37;19.40;;;;;;;7.00;100.00;101671.63;123692;1098;104219;-79
2024/02/18 10:15:01;;;;;;;33.07;16.57;;;;;;;7.00;100.00;101677.74;123668;1099;104271;-79
2024/02/18 10:17:32;;;;;;;39.43;18.67;;;;;;;7.02;100.00;101672.63;123774;1099;104274;-80
2024/02/18 10:20:04;;;;;;;37.20;19.23;;;;;;;7.05;100.00;101675.45;123702;1099;104195;-80
2024/02/18 10:22:36;;;;;;;38.73;18.70;;;;;;;7.05;100.00;101672.84;123748;1099;104347;-80
2024/02/18 10:25:09;;;;;;;34.47;17.30;;;;;;;7.08;100.00;101677.37;123932;1099;104290;-82
2024/02/18 10:27:41;;;;;;;35.07;16.90;;;;;;;7.09;100.00;101681.77;123732;1099;104268;-80
2024/02/18 10:30:15;;;;;;;32.50;16.23;;;;;;;7.11;100.00;101678.48;123808;1099;104351;-80
2024/02/18 10:32:46;;;;;;;34.40;17.20;;;;;;;7.14;100.00;101672.58;123413;1099;104349;-80
2024/02/18 10:35:17;;;;;;;31.17;15.80;;;;;;;7.16;100.00;101669.25;123408;1099;104288;-79
2024/02/18 10:37:50;;;;;;;30.83;15.73;;;;;;;7.17;100.00;101671.07;123699;1098;104280;-81
2024/02/18 10:40:34;;;;;;;32.90;16.60;;;;;;;7.24;100.00;101668.88;123915;1099;104271;-81
2024/02/18 10:43:06;;;;;;;;;;;;;;;7.27;100.00;101672.59;123653;1099;104364;-79
2024/02/18 10:45:40;;;;;;;31.27;15.93;;;;;;;7.36;100.00;101667.10;123714;1099;104277;-79
2024/02/18 10:48:16;;;;;;;31.83;16.53;;;;;;;7.49;100.00;101667.10;123954;1099;104271;-80
2024/02/18 10:50:50;;;;;;;34.00;16.60;;;;;;;7.62;100.00;101670.53;123339;1099;104399;-82
2024/02/18 10:53:33;;;;;;;30.75;15.08;;;;;;;7.69;100.00;101660.59;123712;1099;104329;-79
2024/02/18 10:56:20;;;;;;;27.73;14.30;;;;;;;7.69;100.00;101654.47;123686;1099;104280;-79
2024/02/18 10:59:04;;;;;;;28.33;14.20;;;;;;;7.65;100.00;101660.28;123899;1099;104226;-79
2024/02/18 11:01:43;;;;;;;27.50;14.40;;;;;;;7.64;100.00;101661.11;123615;1099;104354;-80
2024/02/18 11:04:15;;;;;;;28.50;14.17;;;;;;;7.64;100.00;101658.50;123779;1099;104448;-81
2024/02/18 11:06:47;;;;;;;29.57;14.40;;;;;;;7.70;100.00;101658.90;123735;1099;104226;-79
2024/02/18 11:09:20;;;;;;;29.37;14.77;;;;;;;7.86;100.00;101655.58;123426;1099;104341;-80
2024/02/18 11:11:52;;;;;;;28.93;14.03;;;;;;;8.00;100.00;101656.47;123399;1099;104338;-81
2024/02/18 11:14:25;;;;;;;25.57;12.43;;;;;;;8.13;100.00;101652.92;123826;1099;104342;-80
2024/02/18 11:16:58;;;;;;;22.83;11.67;;;;;;;8.23;100.00;101651.00;123486;1099;104456;-79
2024/02/18 11:19:31;;;;;;;24.20;12.10;;;;;;;8.34;100.00;101653.41;123730;1098;104290;-79
2024/02/18 11:22:03;;;;;;;23.57;10.80;;;;;;;8.41;100.00;101652.96;123669;1099;104312;-80
2024/02/18 11:24:36;;;;;;;21.90;9.53;;;;;;;8.45;100.00;101648.05;123865;1099;104201;-81
2024/02/18 11:27:07;;;;;;;17.63;8.53;;;;;;;8.49;100.00;101661.33;123891;1099;104289;-81
2024/02/18 11:29:49;;;;;;;15.57;7.17;;;;;;;8.52;99.88;101651.95;123800;1099;104783;-81
2024/02/18 11:32:20;;;;;;;14.27;6.20;;;;;;;8.55;97.95;101649.52;123847;1099;104261;-81
2024/02/18 11:34:52;;;;;;;11.07;5.33;;;;;;;8.53;98.90;101651.15;123693;1099;104300;-81
2024/02/18 11:37:32;;;;;;;8.57;4.33;;;;;;;8.53;98.11;101648.53;123753;1099;104706;-80
2024/02/18 11:40:10;;;;;;;7.33;3.83;;;;;;;8.56;97.88;101647.83;123377;1099;104354;-79
2024/02/18 11:42:42;;;;;;;5.77;3.27;;;;;;;8.59;96.09;101655.88;123776;1099;104392;-81
2024/02/18 11:45:15;;;;;;;5.87;3.00;;;;;;;8.59;96.23;101654.15;123747;1099;104383;-79
2024/02/18 11:47:51;;;;;;;6.47;3.03;;;;;;;8.62;94.27;101648.21;123790;1099;104300;-80
2024/02/18 11:50:23;;;;;;;5.93;2.80;;;;;;;8.61;94.41;101659.48;123786;1099;104358;-79
2024/02/18 11:52:56;;;;;;;6.23;2.80;;;;;;;8.62;93.61;101667.42;123707;1099;104385;-81
2024/02/18 11:55:28;;;;;;;4.03;2.67;;;;;;;8.64;92.42;101663.17;123577;1099;104414;-80
2024/02/18 11:57:59;;;;;;;4.17;2.40;;;;;;;8.66;93.70;101662.38;123910;1099;104258;-80
2024/02/18 12:00:30;;;;;;;3.90;2.50;;;;;;;8.64;91.64;101662.28;123403;1099;104409;-81
2024/02/18 12:03:02;;;;;;;4.97;2.70;;;;;;;8.62;91.37;101667.42;123634;1099;104373;-80
2024/02/18 12:05:34;;;;;;;6.77;2.53;;;;;;;8.65;91.37;101656.25;123629;1099;104373;-80
2024/02/18 12:08:07;;;;;;;3.03;2.20;;;;;;;8.70;91.14;101667.00;123617;1099;104331;-80
2024/02/18 12:10:37;;;;;;;;;;;;;;;8.72;90.79;101666.27;123807;1099;104351;-80
2024/02/18 12:13:33;;;;;;;7.60;2.57;;;;;;;8.79;90.74;101667.58;123946;1099;104348;-80
2024/02/18 12:16:05;;;;;;;4.40;2.30;;;;;;;8.78;91.52;101656.18;123684;1099;104217;-80
2024/02/18 12:18:36;;;;;;;5.37;2.30;;;;;;;8.72;90.16;101657.52;123731;1099;104242;-79
2024/02/18 12:21:14;;;;;;;3.70;2.00;;;;;;;8.66;90.35;101658.03;123610;1099;104310;-79
2024/02/18 12:23:45;;;;;;;4.00;2.60;;;;;;;8.56;89.33;101667.03;123749;1099;104274;-80
2024/02/18 12:26:17;;;;;;;6.83;2.60;;;;;;;8.48;89.25;101669.97;123401;1099;104315;-79